createdAt,value
2023-04-18T00:01:38.489Z,32.00
2023-04-18T00:06:41.365Z,35.00
2023-04-18T00:11:44.526Z,39.70
2023-04-18T00:16:47.706Z,38.10
2023-04-18T00:21:54.099Z,30.80
2023-04-18T00:26:57.344Z,39.10
2023-04-18T00:32:00.185Z,38.00
2023-04-18T00:37:02.981Z,36.30
2023-04-18T00:42:06.209Z,35.50
2023-04-18T00:47:09.037Z,38.40
2023-04-18T00:52:13.202Z,38.80
2023-04-18T00:57:16.564Z,42.60
2023-04-18T01:02:19.989Z,39.10
2023-04-18T01:07:22.939Z,40.40
2023-04-18T01:12:25.838Z,40.60
2023-04-18T01:17:29.835Z,39.30
2023-04-18T01:22:33.586Z,42.50
2023-04-18T01:32:39.212Z,39.80
2023-04-18T01:37:42.227Z,42.00
2023-04-18T01:42:45.093Z,40.80
2023-04-18T01:47:48.220Z,39.30
2023-04-18T01:52:51.058Z,43.70
2023-04-18T01:57:53.899Z,36.90
2023-04-18T02:02:59.831Z,40.20
2023-04-18T02:08:02.992Z,40.20
2023-04-18T02:13:06.882Z,38.60
2023-04-18T02:18:09.843Z,42.30
2023-04-18T02:23:12.713Z,48.90
2023-04-18T02:28:15.553Z,46.20
2023-04-18T02:33:18.373Z,43.50
2023-04-18T02:38:21.564Z,48.30
2023-04-18T02:43:24.354Z,47.70
2023-04-18T02:48:27.342Z,46.90
2023-04-18T02:53:30.308Z,44.90
2023-04-18T02:58:34.894Z,45.30
2023-04-18T03:03:38.102Z,49.20
2023-04-18T03:08:41.332Z,49.40
2023-04-18T03:13:44.169Z,45.50
2023-04-18T03:18:47.052Z,45.90
2023-04-18T03:23:50.249Z,54.10
2023-04-18T03:28:53.072Z,51.50
2023-04-18T03:33:55.888Z,47.50
2023-04-18T03:38:58.712Z,48.40
2023-04-18T03:44:01.558Z,48.80
2023-04-18T03:49:04.415Z,52.30
2023-04-18T03:54:07.219Z,50.10
2023-04-18T03:59:11.200Z,55.40
2023-04-18T04:04:15.787Z,50.70
2023-04-18T04:09:19.065Z,56.90
2023-04-18T04:14:22.932Z,50.70
2023-04-18T04:19:25.787Z,45.50
2023-04-18T04:24:29.263Z,51.30
2023-04-18T04:29:32.119Z,50.40
2023-04-18T04:34:35.751Z,41.80
2023-04-18T04:39:38.728Z,51.60
2023-04-18T04:44:43.046Z,48.20
2023-04-18T04:49:46.601Z,45.30
2023-04-18T04:54:51.879Z,59.80
2023-04-18T04:59:54.725Z,55.10
2023-04-18T05:04:57.538Z,47.80
2023-04-18T05:10:00.350Z,48.60
2023-04-18T05:15:03.634Z,56.50
2023-04-18T05:20:07.403Z,51.00
2023-04-18T05:30:13.921Z,52.60
2023-04-18T05:35:16.827Z,57.50
2023-04-18T05:40:19.726Z,60.20
2023-04-18T05:45:22.515Z,55.00
2023-04-18T05:50:25.376Z,56.30
2023-04-18T05:55:28.345Z,52.50
2023-04-18T06:00:31.575Z,52.90
2023-04-18T06:05:34.770Z,56.40
2023-04-18T06:10:39.138Z,57.00
2023-04-18T06:15:42.332Z,54.50
2023-04-18T06:20:45.417Z,57.30
2023-04-18T06:25:48.794Z,52.30
2023-04-18T06:30:51.688Z,57.90
2023-04-18T06:35:54.614Z,54.50
2023-04-18T06:40:57.454Z,54.00
2023-04-18T06:46:01.243Z,62.80
2023-04-18T06:51:04.510Z,60.30
2023-04-18T06:56:07.869Z,58.80
2023-04-18T07:01:10.771Z,59.10
2023-04-18T07:06:13.668Z,55.00
2023-04-18T07:11:18.616Z,55.60
2023-04-18T07:16:21.663Z,102.00
2023-04-18T07:21:24.567Z,62.50
2023-04-18T07:26:27.751Z,64.40
2023-04-18T07:31:32.038Z,55.60
2023-04-18T07:36:35.045Z,53.20
2023-04-18T07:41:37.862Z,54.90
2023-04-18T07:46:40.935Z,55.50
2023-04-18T07:51:43.930Z,48.40
2023-04-18T07:56:46.851Z,49.20
2023-04-18T08:01:49.792Z,48.70
2023-04-18T08:06:52.995Z,47.80
2023-04-18T08:11:56.947Z,61.50
2023-04-18T08:16:59.806Z,48.20
2023-04-18T08:22:10.706Z,43.00
2023-04-18T08:27:13.648Z,53.70
2023-04-18T08:32:16.486Z,47.40
2023-04-18T08:37:19.422Z,42.40
2023-04-18T08:42:23.517Z,44.00
2023-04-18T08:47:30.373Z,38.70
2023-04-18T08:52:36.203Z,38.40
2023-04-18T08:57:39.978Z,43.10
2023-04-18T09:02:43.861Z,35.10
2023-04-18T09:07:49.639Z,33.90
2023-04-18T09:12:52.550Z,32.50
2023-04-18T09:18:02.705Z,33.40
2023-04-18T09:23:10.670Z,35.40
2023-04-18T09:28:28.899Z,26.80
2023-04-18T09:33:36.851Z,35.40
2023-04-18T09:38:41.314Z,25.80
2023-04-18T09:43:47.256Z,31.90
2023-04-18T09:48:50.331Z,32.00
2023-04-18T09:53:53.976Z,26.80
2023-04-18T09:59:08.450Z,28.90
2023-04-18T10:04:12.902Z,26.50
2023-04-18T10:09:16.484Z,28.80
2023-04-18T10:19:26.102Z,28.80
2023-04-18T10:24:56.134Z,26.10
2023-04-18T10:29:59.121Z,31.10
2023-04-18T10:35:02.213Z,30.30
2023-04-18T10:40:07.641Z,24.10
2023-04-18T10:45:24.742Z,25.60
2023-04-18T10:50:27.569Z,28.10
2023-04-18T10:55:31.547Z,28.40
2023-04-18T11:00:34.766Z,24.80
2023-04-18T11:05:37.797Z,23.90
2023-04-18T11:10:43.764Z,22.60
2023-04-18T11:15:46.589Z,24.40
2023-04-18T11:20:51.686Z,24.80
2023-04-18T11:25:56.527Z,22.20
2023-04-18T11:31:02.939Z,22.60
2023-04-18T11:36:06.826Z,21.70
2023-04-18T11:41:16.421Z,22.20
2023-04-18T11:46:19.283Z,21.00
2023-04-18T11:51:38.833Z,22.60
2023-04-18T11:56:48.961Z,21.60
2023-04-18T12:02:14.795Z,30.70
2023-04-18T12:07:39.508Z,30.10
2023-04-18T12:12:49.959Z,27.50
2023-04-18T12:17:57.114Z,27.50
2023-04-18T12:23:00.055Z,25.80
2023-04-18T12:28:18.629Z,25.40
2023-04-18T12:33:21.670Z,27.30
2023-04-18T12:38:24.626Z,24.90
2023-04-18T12:43:27.550Z,29.80
2023-04-18T12:48:30.386Z,24.40
2023-04-18T12:53:33.209Z,28.20
2023-04-18T12:58:36.134Z,39.50
2023-04-18T13:03:39.317Z,30.20
2023-04-18T13:08:42.752Z,23.40
2023-04-18T13:13:45.575Z,25.30
2023-04-18T13:18:48.368Z,31.30
2023-04-18T13:23:51.300Z,44.70
2023-04-18T13:28:54.104Z,30.60
2023-04-18T13:33:57.632Z,37.20
2023-04-18T13:39:01.539Z,43.70
2023-04-18T13:44:04.696Z,41.80
2023-04-18T13:49:07.560Z,33.40
2023-04-18T13:54:10.746Z,35.60
2023-04-18T13:59:13.785Z,29.50
2023-04-18T14:04:17.423Z,29.60
2023-04-18T14:09:20.472Z,108.50
2023-04-18T14:14:23.545Z,28.20
2023-04-18T14:19:27.616Z,26.10
2023-04-18T14:24:30.444Z,33.00
2023-04-18T14:29:33.257Z,28.50
2023-04-18T14:34:37.380Z,29.10
2023-04-18T14:39:41.717Z,28.20
2023-04-18T14:44:44.573Z,32.00
2023-04-18T14:49:47.388Z,25.60
2023-04-18T14:54:50.180Z,26.90
2023-04-18T14:59:54.987Z,28.70
2023-04-18T15:04:59.552Z,26.90
2023-04-18T15:10:02.482Z,25.50
2023-04-18T15:15:06.952Z,23.80
2023-04-18T15:20:10.561Z,25.00
2023-04-18T15:25:16.460Z,28.70
2023-04-18T15:30:19.880Z,22.30
2023-04-18T15:35:23.132Z,23.20
2023-04-18T15:40:28.281Z,21.30
2023-04-18T15:45:31.834Z,26.30
2023-04-18T15:55:37.463Z,23.40
2023-04-18T16:00:40.265Z,26.60
2023-04-18T16:05:43.329Z,27.50
2023-04-18T16:10:52.208Z,27.60
2023-04-18T16:15:55.100Z,25.60
2023-04-18T16:20:58.388Z,27.00
2023-04-18T16:26:01.255Z,35.60
2023-04-18T16:31:07.172Z,40.60
2023-04-18T16:36:12.476Z,28.70
2023-04-18T16:41:15.430Z,30.40
2023-04-18T16:46:19.158Z,31.90
2023-04-18T16:51:22.469Z,27.10
2023-04-18T16:56:25.346Z,28.30
2023-04-18T17:01:28.296Z,30.50
2023-04-18T17:06:32.644Z,27.60
2023-04-18T17:11:39.571Z,31.90
2023-04-18T17:16:43.066Z,43.90
2023-04-18T17:21:46.421Z,34.10
2023-04-18T17:26:49.565Z,37.00
2023-04-18T17:31:52.477Z,37.20
2023-04-18T17:36:55.329Z,31.40
2023-04-18T17:42:02.259Z,29.30
2023-04-18T17:47:07.354Z,30.20
2023-04-18T17:52:10.412Z,30.30
2023-04-18T17:57:13.239Z,30.30
2023-04-18T18:02:16.645Z,30.10
2023-04-18T18:12:22.347Z,29.90
2023-04-18T18:17:25.195Z,33.60
2023-04-18T18:22:28.672Z,25.30
2023-04-18T18:27:31.842Z,25.50
2023-04-18T18:32:34.744Z,28.50
2023-04-18T18:37:37.661Z,32.60
2023-04-18T18:42:41.239Z,28.30
2023-04-18T18:52:46.944Z,28.00
2023-04-18T18:57:49.837Z,31.80
2023-04-18T19:02:52.965Z,26.40
2023-04-18T19:07:56.022Z,27.00
2023-04-18T19:13:00.286Z,31.60
2023-04-18T19:18:03.212Z,32.10
2023-04-18T19:23:06.127Z,39.50
2023-04-18T19:28:09.036Z,40.10
2023-04-18T19:33:12.846Z,37.20
2023-04-18T19:38:15.761Z,39.10
2023-04-18T19:43:18.724Z,37.80
2023-04-18T19:48:21.564Z,33.50
2023-04-18T19:53:24.500Z,31.20
2023-04-18T19:58:39.791Z,32.20
2023-04-18T20:03:43.064Z,24.40
2023-04-18T20:08:46.291Z,24.50
2023-04-18T20:13:49.432Z,27.40
2023-04-18T20:18:54.811Z,30.80
2023-04-18T20:23:59.355Z,35.90
2023-04-18T20:29:03.780Z,30.00
2023-04-18T20:34:06.724Z,30.50
2023-04-18T20:39:09.681Z,31.20
2023-04-18T20:44:13.873Z,30.40
2023-04-18T20:49:16.946Z,27.60
2023-04-18T20:54:19.984Z,30.70
2023-04-18T20:59:22.838Z,29.70
2023-04-18T21:04:26.631Z,28.30
2023-04-18T21:09:36.437Z,26.80
2023-04-18T21:14:39.914Z,27.60
2023-04-18T21:19:51.100Z,36.30
2023-04-18T21:24:53.924Z,26.80
2023-04-18T21:29:57.028Z,30.60
2023-04-18T21:35:00.742Z,28.40
2023-04-18T21:40:04.665Z,31.60
2023-04-18T21:45:11.172Z,30.20
2023-04-18T21:50:14.211Z,33.00
2023-04-18T21:55:17.930Z,32.90
2023-04-18T22:00:20.740Z,31.70
2023-04-18T22:05:23.545Z,29.50
2023-04-18T22:10:26.412Z,31.00
2023-04-18T22:15:30.187Z,31.80
2023-04-18T22:20:33.820Z,30.60
2023-04-18T22:30:39.956Z,30.50
2023-04-18T22:35:42.827Z,27.50
2023-04-18T22:40:45.646Z,32.10
2023-04-18T22:45:48.549Z,33.40
2023-04-18T22:50:51.526Z,29.40
2023-04-18T22:55:54.349Z,28.50
2023-04-18T23:00:57.281Z,31.00
2023-04-18T23:06:01.272Z,28.50
2023-04-18T23:11:04.130Z,27.20
2023-04-18T23:16:08.266Z,25.50
2023-04-18T23:21:11.187Z,28.50
2023-04-18T23:26:15.331Z,28.40
2023-04-18T23:31:19.234Z,27.30
2023-04-18T23:36:22.129Z,28.30
2023-04-18T23:41:25.012Z,24.60
2023-04-18T23:46:27.870Z,24.90
2023-04-18T23:51:31.172Z,31.70
2023-04-18T23:56:34.852Z,27.50
